Ocean Majesty — CQSC — position and weather

sailwx.info

Track history (hours):
 
Tides and Currents Weather Stations Pressure Air Temp Water Temp Dewpoint Dewpoint Depression Visibility Wind Speed Wind Dir Waves Ship Positions

Ocean Majesty

Last reported at 2016-Jul-26 01:33 UTC. Time now 2016-Jul-28 22:22 UTC.
Position N 65°40' W 053°48'.

Length 136 m; draft 6.3 m.

Type: Passenger vessel. MMSI: 255717000.

Date/timePositionNaut miles runAvg speedWind from/ knotsBaromVisibWave heightAir tempDewpointWater temp
2016-Jul-26 01:33N 65°40' W 053°48'1211.7
2016-Jul-26 00:33N 65°29' W 053°42'1211.8
2016-Jul-25 23:33N 65°17' W 053°36'1211.8
2016-Jul-25 22:34N 65°06' W 053°30'1211.7
2016-Jul-25 21:33N 64°54' W 053°24'1211.8
2016-Jul-25 20:33N 64°43' W 053°19'1211.7
2016-Jul-25 19:33N 64°31' W 053°14'1211.6
2016-Jul-25 18:34N 64°20' W 053°10'1111.4
2016-Jul-25 17:34N 64°09' W 053°00'1211.6
2016-Jul-25 16:34N 63°59' W 052°46'1211.8
2016-Jul-25 15:34N 63°50' W 052°32'1211.8
2016-Jul-25 14:33N 63°40' W 052°17'1212.4
2016-Jul-25 13:34N 63°29' W 052°03'  
2016-Jul-20 04:30N 63°25' W 006°44'1515.6
2016-Jul-20 03:33N 63°15' W 006°19'1615.7
2016-Jul-20 02:33N 63°05' W 005°53'1616.4
2016-Jul-20 01:33N 62°54' W 005°26'1616.4
2016-Jul-20 00:33N 62°42' W 005°01'1616.0
2016-Jul-19 23:33N 62°32' W 004°35'1615.9
2016-Jul-19 22:34N 62°21' W 004°10'58213.4
2016-Jul-18 03:08N 54°38' E 007°04'1 2.3
2016-Jul-18 02:33N 54°37' E 007°05'1717.0
2016-Jul-18 01:33N 54°23' E 007°23'1717.3
2016-Jul-18 00:33N 54°10' E 007°43'1717.0
2016-Jul-17 23:34N 54°01' E 008°06'1313.2
2016-Jul-17 22:33N 53°59' E 008°28'1413.7
2016-Jul-17 21:34N 53°51' E 008°47'1313.0
2016-Jul-17 20:33N 53°53' E 009°09'1010.4
2016-Jul-17 19:34N 53°47' E 009°23'1313.4
2016-Jul-17 18:33N 53°36' E 009°36'1111.0
2016-Jul-17 17:33N 53°33' E 009°53'4 3.8
2016-Jul-17 16:33N 53°32' E 009°60'0 0.0
2016-Jul-17 15:33N 53°32' E 009°60'0 0.0
2016-Jul-17 14:33N 53°32' E 009°60'0 0.0
2016-Jul-17 13:33N 53°32' E 009°60'0 0.0
2016-Jul-17 12:33N 53°32' E 009°60'0 0.0
2016-Jul-17 11:33N 53°32' E 009°60'3 2.8
2016-Jul-17 10:34N 53°32' E 009°55'10 9.7
2016-Jul-17 09:33N 53°34' E 009°39'1110.7
2016-Jul-17 08:33N 53°43' E 009°28'1211.8
2016-Jul-17 07:33N 53°52' E 009°16'1211.6
2016-Jul-17 06:33N 53°51' E 008°57'2512.5
2016-Jul-17 04:33N 53°60' E 008°17'1414.5
2016-Jul-17 03:33N 54°03' E 007°53'1616.2
2016-Jul-17 02:33N 54°15' E 007°34'1616.4
2016-Jul-17 01:33N 54°29' E 007°20'2016.2
2016-Jul-17 00:19N 54°47' E 007°03'1216.3
2016-Jul-16 23:33N 54°58' E 006°52'1616.4
2016-Jul-16 22:33N 55°12' E 006°40'  
Track history (hours):
 
Tides and Currents Weather Stations Pressure Air Temp Water Temp Dewpoint Dewpoint Depression Visibility Wind Speed Wind Dir Waves Ship Positions

Ocean Majesty

Last reported at 2016-Jul-26 01:33 UTC. Time now 2016-Jul-28 22:22 UTC.
Position N 65°40' W 053°48'.

Length 136 m; draft 6.3 m.

Type: Passenger vessel. MMSI: 255717000.

Date/timePositionNaut miles runAvg speedWind from/ knotsBaromVisibWave heightAir tempDewpointWater temp
2016-Jul-26 01:33N 65°40' W 053°48'1211.7
2016-Jul-26 00:33N 65°29' W 053°42'1211.8
2016-Jul-25 23:33N 65°17' W 053°36'1211.8
2016-Jul-25 22:34N 65°06' W 053°30'1211.7
2016-Jul-25 21:33N 64°54' W 053°24'1211.8
2016-Jul-25 20:33N 64°43' W 053°19'1211.7
2016-Jul-25 19:33N 64°31' W 053°14'1211.6
2016-Jul-25 18:34N 64°20' W 053°10'1111.4
2016-Jul-25 17:34N 64°09' W 053°00'1211.6
2016-Jul-25 16:34N 63°59' W 052°46'1211.8
2016-Jul-25 15:34N 63°50' W 052°32'1211.8
2016-Jul-25 14:33N 63°40' W 052°17'1212.4
2016-Jul-25 13:34N 63°29' W 052°03'  
2016-Jul-20 04:30N 63°25' W 006°44'1515.6
2016-Jul-20 03:33N 63°15' W 006°19'1615.7
2016-Jul-20 02:33N 63°05' W 005°53'1616.4
2016-Jul-20 01:33N 62°54' W 005°26'1616.4
2016-Jul-20 00:33N 62°42' W 005°01'1616.0
2016-Jul-19 23:33N 62°32' W 004°35'1615.9
2016-Jul-19 22:34N 62°21' W 004°10'58213.4
2016-Jul-18 03:08N 54°38' E 007°04'1 2.3
2016-Jul-18 02:33N 54°37' E 007°05'1717.0
2016-Jul-18 01:33N 54°23' E 007°23'1717.3
2016-Jul-18 00:33N 54°10' E 007°43'1717.0
2016-Jul-17 23:34N 54°01' E 008°06'1313.2
2016-Jul-17 22:33N 53°59' E 008°28'1413.7
2016-Jul-17 21:34N 53°51' E 008°47'1313.0
2016-Jul-17 20:33N 53°53' E 009°09'1010.4
2016-Jul-17 19:34N 53°47' E 009°23'1313.4
2016-Jul-17 18:33N 53°36' E 009°36'1111.0
2016-Jul-17 17:33N 53°33' E 009°53'4 3.8
2016-Jul-17 16:33N 53°32' E 009°60'0 0.0
2016-Jul-17 15:33N 53°32' E 009°60'0 0.0
2016-Jul-17 14:33N 53°32' E 009°60'0 0.0
2016-Jul-17 13:33N 53°32' E 009°60'0 0.0
2016-Jul-17 12:33N 53°32' E 009°60'0 0.0
2016-Jul-17 11:33N 53°32' E 009°60'3 2.8
2016-Jul-17 10:34N 53°32' E 009°55'10 9.7
2016-Jul-17 09:33N 53°34' E 009°39'1110.7
2016-Jul-17 08:33N 53°43' E 009°28'1211.8
2016-Jul-17 07:33N 53°52' E 009°16'1211.6
2016-Jul-17 06:33N 53°51' E 008°57'2512.5
2016-Jul-17 04:33N 53°60' E 008°17'1414.5
2016-Jul-17 03:33N 54°03' E 007°53'1616.2
2016-Jul-17 02:33N 54°15' E 007°34'1616.4
2016-Jul-17 01:33N 54°29' E 007°20'2016.2
2016-Jul-17 00:19N 54°47' E 007°03'1216.3
2016-Jul-16 23:33N 54°58' E 006°52'1616.4
2016-Jul-16 22:33N 55°12' E 006°40'  

Dump ship's entire track history